WSSL METAR and TAF | Updated Today

WSSL METAR

Seletar Airport

Observation time: 52 min. ago

WSSL 060700Z 35006KT 320V040 9999 FEW015 SCT018 31/21 Q1009

Need help? Read our tutorial on how to read METARs or read the parsed version below.

Seletar Airport (WSSL) METAR

  • Weather conditions on Mon, 06 Dec 2021 07:00:00 +0000 (52 min. ago):
  • Present conditions: Dry
  • Clouds: A few at 457 meters; scattered at 549 meters
  • Visibility: Greater than 10 km
  • Wind: 350 degrees at 6 knots
  • Temperature: 31 celsius
  • Dew point: 21 celsius
  • Pressure: 1009 millibars
  • Remarks: None


Useful to know...

WSSL TAF

Seletar Airport

TAF WSSL 060500Z 0606/0712 01010KT 9999 FEW015 SCT020
Observation time: 2:52 hr. ago
Need help? Read our tutorial on how to read TAFs or read the parsed version below.

Parsed version of TAF for Seletar Airport (WSSL)

  • From 06 December at 06:00 UTC, to day 07 of the month at 12:00 UTC
  • Clouds: A few at 457 meters; scattered at 610 meters
  • Visibility: Greater than 10 km
  • Wind: 10 degrees at 10